Time;durP1;ratioP1;P1;durP2;ratioP2;P2;SDS_P1;SDS_P2;PMS_P1;PMS_P2;Temp;Humidity;BMP_temperature;BMP_pressure;BME280_temperature;BME280_humidity;BME280_pressure;Samples;Min_cycle;Max_cycle;Signal;HPM_P1;HPM_P2
2023/06/24 00:01:02;;;;;;;13.53;12.43;;;16.50;99.90;;;;;;2613639;47;20170;-77
2023/06/24 00:06:52;;;;;;;12.47;10.87;;;16.50;99.90;;;;;;2613124;54;20374;-76
2023/06/24 00:12:41;;;;;;;12.30;11.20;;;16.40;99.90;;;;;;2614261;54;20407;-76
2023/06/24 00:18:29;;;;;;;14.53;12.80;;;16.40;99.90;;;;;;2614314;54;20929;-76
2023/06/24 00:24:21;;;;;;;13.53;11.73;;;16.50;99.90;;;;;;2614987;54;21014;-76
2023/06/24 00:30:09;;;;;;;12.87;11.67;;;16.40;99.90;;;;;;2615162;54;20355;-76
2023/06/24 00:35:57;;;;;;;14.00;12.60;;;16.20;99.90;;;;;;2614681;54;20403;-76
2023/06/24 00:41:44;;;;;;;13.07;11.87;;;16.10;99.90;;;;;;2615511;54;20159;-76
2023/06/24 00:47:33;;;;;;;16.93;13.40;;;16.00;99.90;;;;;;2615280;54;20171;-76
2023/06/24 00:50:37;;;;;;;13.70;12.30;;;16.00;99.90;;;;;;2615822;39;20899;-75
2023/06/24 00:53:02;;;;;;;15.17;13.70;;;16.10;99.90;;;;;;2613908;54;20926;-75
2023/06/24 01:03:08;;;;;;;13.50;11.70;;;16.10;99.90;;;;;;2615363;54;20398;-77
2023/06/24 01:08:57;;;;;;;13.10;11.80;;;16.00;99.90;;;;;;2614684;54;20398;-76
2023/06/24 01:14:44;;;;;;;15.67;12.00;;;15.70;99.90;;;;;;2614896;54;20435;-75
2023/06/24 01:40:44;;;;;;;14.97;11.40;;;15.50;99.90;;;;;;2614765;54;20394;-76
2023/06/24 01:46:32;;;;;;;15.83;12.43;;;15.60;99.90;;;;;;2614293;54;20395;-75
2023/06/24 01:52:23;;;;;;;14.43;12.60;;;15.70;99.90;;;;;;2612850;54;20162;-76
2023/06/24 01:58:13;;;;;;;14.83;12.20;;;15.70;99.90;;;;;;2614577;54;20435;-77
2023/06/24 02:04:04;;;;;;;13.87;11.93;;;15.60;99.90;;;;;;2614207;54;20487;-76
2023/06/24 02:07:23;;;;;;;15.03;12.43;;;15.40;99.90;;;;;;2614075;54;20490;-75
2023/06/24 02:13:13;;;;;;;12.70;11.40;;;15.40;99.90;;;;;;2614483;54;20379;-76
2023/06/24 02:19:01;;;;;;;12.60;11.33;;;15.40;99.90;;;;;;2613304;54;20355;-75
2023/06/24 02:24:50;;;;;;;13.00;11.70;;;15.30;99.90;;;;;;2614523;54;20395;-76
2023/06/24 02:30:38;;;;;;;12.60;10.30;;;15.20;99.90;;;;;;2613192;54;20399;-76
2023/06/24 02:36:26;;;;;;;12.90;11.03;;;15.30;99.90;;;;;;2613060;54;20459;-77
2023/06/24 02:42:14;;;;;;;12.90;11.27;;;15.20;99.90;;;;;;2614394;54;20146;-76
2023/06/24 02:48:03;;;;;;;13.37;11.90;;;15.10;99.90;;;;;;2614963;54;20146;-76
2023/06/24 02:53:51;;;;;;;12.00;10.67;;;15.10;99.90;;;;;;2612732;54;20423;-76
2023/06/24 02:59:39;;;;;;;12.80;11.50;;;15.10;99.90;;;;;;2614387;54;20392;-75
2023/06/24 03:02:54;;;;;;;13.70;12.30;;;15.00;99.90;;;;;;2612936;54;20499;-76
2023/06/24 03:05:25;;;;;;;12.80;11.60;;;15.10;99.90;;;;;;2614096;54;20206;-76
2023/06/24 03:11:14;;;;;;;11.90;10.70;;;15.10;99.90;;;;;;2611948;54;20929;-76
2023/06/24 03:17:01;;;;;;;13.23;11.07;;;15.20;99.90;;;;;;2614803;39;20522;-77
2023/06/24 03:22:49;;;;;;;12.80;11.50;;;15.10;99.90;;;;;;2613786;39;20613;-76
2023/06/24 03:28:38;;;;;;;12.20;10.90;;;15.20;99.90;;;;;;2614458;54;20137;-77
2023/06/24 03:34:26;;;;;;;13.43;11.13;;;15.40;99.90;;;;;;2613427;54;20443;-75
2023/06/24 03:40:14;;;;;;;11.70;10.57;;;15.80;99.90;;;;;;2614623;54;20438;-76
2023/06/24 03:46:02;;;;;;;11.60;10.50;;;15.90;99.90;;;;;;2614752;54;20126;-78
2023/06/24 03:51:49;;;;;;;13.03;11.73;;;16.20;99.90;;;;;;2614156;54;20134;-76
2023/06/24 03:57:37;;;;;;;12.30;11.13;;;16.50;99.90;;;;;;2614231;54;20134;-76
2023/06/24 04:07:27;;;;;;;11.30;10.33;;;16.70;99.90;;;;;;2614527;54;20456;-76
2023/06/24 04:13:15;;;;;;;13.27;12.03;;;17.00;99.90;;;;;;2614298;54;20453;-76
2023/06/24 04:19:03;;;;;;;13.17;11.90;;;17.40;99.90;;;;;;2613385;54;20150;-75
2023/06/24 04:24:51;;;;;;;14.00;12.90;;;17.60;99.90;;;;;;2614294;54;20676;-76
2023/06/24 04:30:39;;;;;;;12.83;11.83;;;17.70;99.90;;;;;;2615446;31;20622;-76
2023/06/24 04:36:26;;;;;;;13.07;11.77;;;17.80;99.90;;;;;;2614237;39;20745;-76
2023/06/24 04:42:14;;;;;;;13.50;12.50;;;17.80;99.90;;;;;;2613822;54;20164;-76
2023/06/24 04:48:02;;;;;;;11.53;10.53;;;18.20;99.90;;;;;;2613054;46;20154;-77
2023/06/24 04:53:50;;;;;;;13.23;12.13;;;18.30;99.90;;;;;;2613143;54;20243;-76
2023/06/24 04:59:38;;;;;;;14.83;13.73;;;18.40;99.90;;;;;;2612217;54;20144;-76
2023/06/24 05:02:55;;;;;;;14.50;13.30;;;18.40;99.90;;;;;;2612292;47;20418;-78
2023/06/24 05:05:21;;;;;;;14.60;13.00;;;18.50;99.90;;;;;;2614247;54;20970;-76
2023/06/24 05:11:09;;;;;;;14.17;13.23;;;18.70;99.90;;;;;;2614642;54;20218;-78
2023/06/24 05:16:56;;;;;;;13.40;12.33;;;19.00;99.90;;;;;;2614295;39;20670;-76
2023/06/24 05:22:44;;;;;;;13.50;12.40;;;19.60;99.90;;;;;;2615215;39;20238;-76
2023/06/24 05:28:32;;;;;;;15.00;13.80;;;20.20;99.90;;;;;;2615004;54;20231;-76
2023/06/24 05:34:19;;;;;;;13.67;12.57;;;20.30;99.90;;;;;;2614705;54;20637;-77
2023/06/24 05:40:09;;;;;;;13.73;12.83;;;20.00;99.90;;;;;;2615289;54;20138;-75
2023/06/24 05:45:56;;;;;;;15.30;14.20;;;21.60;99.90;;;;;;2609377;54;20399;-77
2023/06/24 05:51:44;;;;;;;16.20;14.80;;;21.70;99.90;;;;;;2611403;54;20165;-77
2023/06/24 05:57:32;;;;;;;14.53;13.30;;;21.50;99.90;;;;;;2613962;39;20654;-76
2023/06/24 06:07:23;;;;;;;14.80;13.60;;;22.10;99.90;;;;;;2613239;54;20448;-76
2023/06/24 06:13:10;;;;;;;14.93;13.90;;;22.70;99.90;;;;;;2613381;54;20500;-77
2023/06/24 06:18:58;;;;;;;15.80;14.80;;;22.80;99.90;;;;;;2613184;54;20187;-77
2023/06/24 06:24:45;;;;;;;16.50;15.30;;;23.60;99.90;;;;;;2614889;54;20237;-76
2023/06/24 06:30:33;;;;;;;18.23;16.97;;;23.30;99.90;;;;;;2613687;54;20150;-77
2023/06/24 06:36:21;;;;;;;18.10;16.80;;;24.50;99.90;;;;;;2613136;54;20821;-77
2023/06/24 06:42:09;;;;;;;18.93;17.80;;;24.20;99.90;;;;;;2613905;39;20837;-78
2023/06/24 06:45:12;;;;;;;21.00;19.30;;;23.80;99.90;;;;;;2610948;47;20416;-76
2023/06/24 06:47:38;;;;;;;19.23;17.83;;;23.60;99.90;;;;;;2614647;54;20254;-77
2023/06/24 06:53:26;;;;;;;20.50;18.80;;;22.70;99.90;;;;;;2612428;54;20140;-77
2023/06/24 06:59:13;;;;;;;18.70;17.40;;;22.90;99.90;;;;;;2612963;54;20682;-76
2023/06/24 07:08:26;;;;;;;18.70;17.40;;;23.00;99.90;;;;;;2614198;31;20843;-77
2023/06/24 07:14:13;;;;;;;20.50;19.10;;;24.50;99.90;;;;;;2613878;54;20391;-77
2023/06/24 07:20:02;;;;;;;20.53;18.87;;;24.30;99.90;;;;;;2613388;54;20153;-76
2023/06/24 07:25:49;;;;;;;21.27;19.53;;;23.90;99.90;;;;;;2610947;54;20158;-77
2023/06/24 07:31:37;;;;;;;21.67;19.77;;;24.60;99.90;;;;;;2614140;39;20552;-78
2023/06/24 07:37:25;;;;;;;21.83;20.33;;;23.70;99.90;;;;;;2614762;39;20457;-78
2023/06/24 07:43:13;;;;;;;21.33;19.73;;;24.90;99.90;;;;;;2614064;54;20134;-77
2023/06/24 07:49:01;;;;;;;22.00;20.10;;;24.50;99.90;;;;;;2614212;54;20123;-77
2023/06/24 07:54:48;;;;;;;23.70;21.80;;;24.60;99.90;;;;;;2614326;54;20146;-76
2023/06/24 08:00:36;;;;;;;24.70;22.17;;;25.30;99.90;;;;;;2614666;54;20127;-76
2023/06/24 08:03:56;;;;;;;22.77;21.10;;;24.80;99.90;;;;;;2613085;47;20547;-77
2023/06/24 08:06:22;;;;;;;22.30;20.50;;;25.50;99.90;;;;;;2614181;54;20235;-77
2023/06/24 08:12:10;;;;;;;23.60;21.70;;;26.10;99.90;;;;;;2614381;54;20158;-76
2023/06/24 08:17:58;;;;;;;24.43;22.37;;;25.30;99.90;;;;;;2614112;54;20162;-77
2023/06/24 08:23:46;;;;;;;26.87;24.87;;;26.00;99.90;;;;;;2614030;39;20547;-77
2023/06/24 08:29:34;;;;;;;24.73;22.97;;;26.00;99.90;;;;;;2613411;54;20393;-76
2023/06/24 08:35:21;;;;;;;24.03;22.10;;;25.20;99.90;;;;;;2614362;54;20134;-76
2023/06/24 08:41:09;;;;;;;22.13;20.33;;;26.40;99.90;;;;;;2614118;54;20180;-78
2023/06/24 08:46:58;;;;;;;21.37;19.97;;;26.60;99.90;;;;;;2613749;54;20146;-78
2023/06/24 08:52:52;;;;;;;22.43;20.53;;;27.10;99.90;;;;;;2614907;54;20398;-77
2023/06/24 08:58:40;;;;;;;19.70;18.23;;;26.60;99.90;;;;;;2614862;54;20535;-76
2023/06/24 09:08:27;;;;;;;20.43;18.93;;;27.70;99.90;;;;;;2614751;54;20418;-77
2023/06/24 09:14:15;;;;;;;19.97;18.43;;;26.70;99.90;;;;;;2613261;54;20407;-76
2023/06/24 09:20:07;;;;;;;18.23;16.97;;;27.10;99.90;;;;;;2612112;54;20131;-78
2023/06/24 09:25:58;;;;;;;17.50;16.30;;;27.40;99.20;;;;;;2613575;39;20744;-77
2023/06/24 09:31:52;;;;;;;16.60;15.40;;;28.00;94.00;;;;;;2613654;54;20391;-78
2023/06/24 09:37:39;;;;;;;17.33;16.23;;;28.00;82.30;;;;;;2614942;54;20390;-78
2023/06/24 09:43:27;;;;;;;17.40;16.10;;;28.10;81.10;;;;;;2614579;54;20154;-78
2023/06/24 09:49:15;;;;;;;17.27;16.23;;;28.40;69.60;;;;;;2614356;54;20703;-78
2023/06/24 09:55:03;;;;;;;16.53;15.63;;;28.60;67.20;;;;;;2614184;54;20471;-79
2023/06/24 10:00:52;;;;;;;16.37;15.37;;;28.10;53.40;;;;;;2615078;54;20350;-77
2023/06/24 10:03:56;;;;;;;16.40;15.27;;;28.00;52.70;;;;;;2613951;54;20415;-77
2023/06/24 10:06:23;;;;;;;16.23;15.37;;;27.80;53.60;;;;;;2613022;47;20416;-78
2023/06/24 10:12:11;;;;;;;17.70;16.67;;;28.00;53.90;;;;;;2612743;39;20768;-78
2023/06/24 10:18:03;;;;;;;15.60;14.73;;;28.20;48.40;;;;;;2614721;54;20150;-79
2023/06/24 10:23:55;;;;;;;16.17;15.27;;;28.10;45.20;;;;;;2608520;54;20527;-77
2023/06/24 10:29:51;;;;;;;16.00;14.80;;;28.60;39.30;;;;;;2611654;54;20969;-79
2023/06/24 10:35:43;;;;;;;16.13;15.00;;;28.90;39.90;;;;;;2614384;54;20387;-79
2023/06/24 10:41:32;;;;;;;15.57;14.63;;;27.60;37.10;;;;;;2614861;39;20836;-78
2023/06/24 10:47:19;;;;;;;15.30;14.50;;;28.50;32.60;;;;;;2612380;54;20399;-78
2023/06/24 10:53:08;;;;;;;14.70;14.00;;;28.70;35.10;;;;;;2613765;54;20419;-78
2023/06/24 10:58:56;;;;;;;15.50;14.70;;;28.30;26.60;;;;;;2614001;54;20359;-77
2023/06/24 11:08:25;;;;;;;15.27;14.40;;;28.80;26.00;;;;;;2614528;54;21014;-78
2023/06/24 11:14:15;;;;;;;13.23;12.63;;;29.20;22.50;;;;;;2612501;54;20428;-77
2023/06/24 11:20:08;;;;;;;14.20;13.30;;;29.20;1.40;;;;;;2611996;54;21074;-78
2023/06/24 11:26:00;;;;;;;14.70;13.87;;;29.10;8.20;;;;;;2612024;39;20813;-77
2023/06/24 11:31:51;;;;;;;13.17;12.57;;;29.10;4.30;;;;;;2610394;54;20367;-78
2023/06/24 11:37:44;;;;;;;31.77;29.50;;;29.80;8.20;;;;;;2612842;39;20884;-77
2023/06/24 11:43:33;;;;;;;34.03;31.87;;;29.90;11.70;;;;;;2612400;54;20910;-78
2023/06/24 11:49:21;;;;;;;36.97;34.47;;;30.20;9.10;;;;;;2613297;54;20434;-77
2023/06/24 11:55:15;;;;;;;153.93;140.63;;;29.10;5.70;;;;;;2613416;39;20533;-78
2023/06/24 12:01:03;;;;;;;20.80;19.53;;;29.10;4.00;;;;;;2614471;54;20395;-77
2023/06/24 12:03:56;;;;;;;27.33;25.50;;;29.80;1.00;;;;;;2612292;47;20926;-77
2023/06/24 12:06:22;;;;;;;249.80;226.87;;;29.80;1.00;;;;;;2613741;54;20415;-77
2023/06/24 12:12:10;;;;;;;23.03;21.67;;;30.20;1.00;;;;;;2610807;54;20162;-78
2023/06/24 12:17:58;;;;;;;78.50;72.23;;;28.50;1.40;;;;;;2610029;54;20125;-78
2023/06/24 12:23:45;;;;;;;66.30;60.67;;;29.90;1.00;;;;;;2612860;54;20529;-77
2023/06/24 12:29:33;;;;;;;32.97;30.17;;;30.20;1.00;;;;;;2614620;54;20170;-78
2023/06/24 12:35:25;;;;;;;18.10;17.10;;;28.80;1.00;;;;;;2614490;54;21048;-78
2023/06/24 12:41:12;;;;;;;15.30;14.50;;;28.40;1.00;;;;;;2613705;54;20464;-77
2023/06/24 12:44:15;;;;;;;16.00;15.10;;;30.20;1.00;;;;;;2614208;54;20423;-78
2023/06/24 12:46:41;;;;;;;26.10;19.23;;;29.90;1.00;;;;;;2614355;54;20151;-79
2023/06/24 12:52:28;;;;;;;14.30;13.60;;;29.70;1.10;;;;;;2614681;39;20542;-76
2023/06/24 12:58:22;;;;;;;16.43;15.60;;;29.70;1.70;;;;;;2614980;54;20118;-77
2023/06/24 13:11:10;;;;;;;15.50;14.80;;;29.60;1.70;;;;;;2609409;54;20384;-77
2023/06/24 13:13:36;;;;;;;15.40;14.70;;;30.90;1.00;;;;;;2612507;39;21103;-76
2023/06/24 13:22:45;;;;;;;15.50;14.70;;;30.60;1.00;;;;;;2612842;54;20424;-78
2023/06/24 13:28:32;;;;;;;15.63;14.83;;;30.10;1.00;;;;;;2612770;54;20241;-77
2023/06/24 13:34:19;;;;;;;16.10;15.30;;;29.50;1.00;;;;;;2613525;54;20142;-76
2023/06/24 13:40:07;;;;;;;15.70;15.00;;;30.50;1.00;;;;;;2612794;54;20163;-78
2023/06/24 13:45:55;;;;;;;17.10;16.17;;;30.00;1.00;;;;;;2612884;54;20383;-77
2023/06/24 13:51:43;;;;;;;17.33;16.43;;;31.50;1.00;;;;;;2613809;54;20175;-78
2023/06/24 13:57:30;;;;;;;15.53;14.73;;;30.70;1.00;;;;;;2614130;54;20957;-77
2023/06/24 14:03:18;;;;;;;16.77;15.87;;;30.40;1.00;;;;;;2613410;54;20126;-78
2023/06/24 14:12:59;;;;;;;14.93;14.13;;;30.00;1.00;;;;;;2613381;46;20479;-76
2023/06/24 14:18:46;;;;;;;16.20;15.40;;;30.50;1.00;;;;;;2614582;54;20420;-76
2023/06/24 14:24:35;;;;;;;15.10;14.40;;;30.00;1.00;;;;;;2614603;54;20151;-77
2023/06/24 14:30:23;;;;;;;14.90;14.20;;;30.10;1.00;;;;;;2614634;54;20441;-77
2023/06/24 14:36:11;;;;;;;15.43;14.67;;;31.00;1.00;;;;;;2613697;54;20295;-69
2023/06/24 14:41:59;;;;;;;15.00;14.30;;;31.00;1.00;;;;;;2614133;54;20150;-69
2023/06/24 14:47:47;;;;;;;16.23;15.27;;;30.50;1.00;;;;;;2613575;54;20130;-69
2023/06/24 14:53:34;;;;;;;15.83;15.13;;;31.50;1.00;;;;;;2611770;54;20820;-69
2023/06/24 14:59:22;;;;;;;15.17;14.47;;;30.30;1.00;;;;;;2613803;39;20206;-69
2023/06/24 15:05:09;;;;;;;16.07;15.27;;;30.50;1.00;;;;;;2613800;54;20130;-69
2023/06/24 15:08:28;;;;;;;15.77;14.87;;;30.60;1.00;;;;;;2613631;54;20392;-69
2023/06/24 15:10:53;;;;;;;15.77;15.07;;;30.50;1.00;;;;;;2613664;54;20326;-69
2023/06/24 15:16:41;;;;;;;15.90;15.10;;;30.50;1.00;;;;;;2612769;54;20227;-69
2023/06/24 15:22:29;;;;;;;15.80;15.10;;;30.80;1.00;;;;;;2613992;54;20142;-67
2023/06/24 15:28:16;;;;;;;16.47;15.10;;;30.40;1.00;;;;;;2613702;54;20262;-67
2023/06/24 15:34:04;;;;;;;15.90;15.00;;;31.00;1.00;;;;;;2614761;39;20514;-69
2023/06/24 15:39:52;;;;;;;15.17;14.37;;;30.10;1.00;;;;;;2614349;54;20126;-68
2023/06/24 15:45:40;;;;;;;15.57;14.77;;;30.00;1.00;;;;;;2615067;39;20516;-69
2023/06/24 15:51:28;;;;;;;17.23;16.33;;;30.10;1.00;;;;;;2613442;54;20122;-69
2023/06/24 15:57:16;;;;;;;16.50;15.60;;;30.40;1.00;;;;;;2614214;54;20379;-69
2023/06/24 16:03:04;;;;;;;16.33;15.43;;;30.10;1.00;;;;;;2612460;54;20125;-69
2023/06/24 16:12:57;;;;;;;16.00;15.30;;;30.90;1.00;;;;;;2612799;54;20363;-68
2023/06/24 16:18:45;;;;;;;16.30;15.50;;;30.90;1.00;;;;;;2614003;54;20371;-68
2023/06/24 16:24:32;;;;;;;17.40;16.30;;;30.90;1.00;;;;;;2613837;54;20125;-69
2023/06/24 16:30:21;;;;;;;18.83;17.73;;;30.60;1.00;;;;;;2614009;54;20149;-69
2023/06/24 16:36:10;;;;;;;17.23;16.43;;;29.70;1.00;;;;;;2614220;54;20398;-69
2023/06/24 16:41:57;;;;;;;19.17;18.07;;;30.20;1.00;;;;;;2613657;54;20396;-70
2023/06/24 16:47:45;;;;;;;16.80;15.90;;;30.00;1.00;;;;;;2614054;54;20143;-70
2023/06/24 16:53:32;;;;;;;16.43;15.73;;;29.70;1.00;;;;;;2614338;39;20494;-68
2023/06/24 16:59:20;;;;;;;17.63;16.80;;;29.60;1.00;;;;;;2614009;54;20134;-70
2023/06/24 17:05:08;;;;;;;17.43;16.63;;;29.80;1.00;;;;;;2614852;54;21012;-69
2023/06/24 17:11:11;;;;;;;16.57;15.57;;;29.80;1.00;;;;;;2612529;54;20165;-68
2023/06/24 17:16:58;;;;;;;17.53;16.73;;;29.60;1.00;;;;;;2613483;54;20150;-68
2023/06/24 17:22:46;;;;;;;17.33;16.53;;;29.60;1.00;;;;;;2613777;54;20314;-69
2023/06/24 17:28:33;;;;;;;17.53;16.63;;;29.00;1.00;;;;;;2612929;54;20146;-68
2023/06/24 17:34:20;;;;;;;18.53;17.63;;;29.10;1.00;;;;;;2611934;39;20577;-70
2023/06/24 17:40:08;;;;;;;17.67;16.80;;;28.40;1.00;;;;;;2613371;54;20114;-69
2023/06/24 17:45:55;;;;;;;19.90;18.70;;;28.30;1.00;;;;;;2613449;54;20395;-69
2023/06/24 17:51:43;;;;;;;17.10;16.30;;;27.40;1.00;;;;;;2614906;54;20641;-70
2023/06/24 17:57:31;;;;;;;16.60;15.83;;;27.40;1.00;;;;;;2614275;54;20139;-69
2023/06/24 18:03:19;;;;;;;17.50;16.63;;;27.20;1.00;;;;;;2614695;54;20231;-68
2023/06/24 18:12:56;;;;;;;15.93;15.23;;;26.90;1.00;;;;;;2614155;54;20519;-68
2023/06/24 18:18:44;;;;;;;18.50;17.50;;;26.80;1.00;;;;;;2614548;54;20410;-69
2023/06/24 18:24:32;;;;;;;17.10;16.20;;;26.90;1.20;;;;;;2613935;54;20147;-69
2023/06/24 18:30:20;;;;;;;17.00;16.10;;;26.60;1.70;;;;;;2612955;54;20367;-69
2023/06/24 18:36:08;;;;;;;16.80;15.90;;;26.40;2.20;;;;;;2614749;54;20123;-69
2023/06/24 18:41:56;;;;;;;16.97;16.17;;;26.00;6.50;;;;;;2614637;54;20139;-69
2023/06/24 18:47:43;;;;;;;17.33;16.40;;;25.90;6.80;;;;;;2613543;54;20130;-69
2023/06/24 18:53:31;;;;;;;18.30;17.40;;;25.80;9.30;;;;;;2614108;54;20182;-69
2023/06/24 18:59:19;;;;;;;16.93;16.13;;;25.60;10.00;;;;;;2614877;54;20142;-70
2023/06/24 19:05:07;;;;;;;16.97;16.13;;;25.40;11.70;;;;;;2614920;54;20126;-69
2023/06/24 19:08:28;;;;;;;16.63;15.83;;;25.40;13.40;;;;;;2613615;47;20403;-69
2023/06/24 19:10:54;;;;;;;17.43;16.53;;;25.30;13.60;;;;;;2614648;54;20140;-69
2023/06/24 19:16:41;;;;;;;17.60;16.60;;;25.00;16.80;;;;;;2614550;54;20134;-70
2023/06/24 19:22:29;;;;;;;17.77;16.87;;;24.80;17.60;;;;;;2613929;54;20134;-69
2023/06/24 19:28:16;;;;;;;19.60;18.40;;;24.70;20.00;;;;;;2614332;54;20256;-68
2023/06/24 19:34:04;;;;;;;17.67;16.77;;;24.30;24.00;;;;;;2614578;54;20122;-69
2023/06/24 19:39:52;;;;;;;16.70;15.90;;;24.00;33.00;;;;;;2614763;54;20154;-69
2023/06/24 19:45:40;;;;;;;16.70;15.80;;;23.70;40.60;;;;;;2614525;54;20154;-69
2023/06/24 19:51:29;;;;;;;16.87;16.07;;;23.40;47.80;;;;;;2614510;54;20129;-70
2023/06/24 19:57:18;;;;;;;17.33;16.33;;;23.10;51.20;;;;;;2612960;54;20515;-68
2023/06/24 20:03:05;;;;;;;15.93;15.13;;;22.70;65.00;;;;;;2612941;54;20419;-69
2023/06/24 20:12:56;;;;;;;16.40;15.50;;;22.50;72.70;;;;;;2613482;54;21014;-69
2023/06/24 20:18:44;;;;;;;17.07;16.07;;;22.30;85.60;;;;;;2612937;54;20407;-68
2023/06/24 20:24:31;;;;;;;17.20;15.90;;;22.10;94.70;;;;;;2614282;54;20126;-68
2023/06/24 20:30:19;;;;;;;16.10;15.20;;;21.90;99.90;;;;;;2614266;54;20732;-68
2023/06/24 20:36:07;;;;;;;17.37;16.27;;;21.70;99.90;;;;;;2614293;54;20734;-70
2023/06/24 20:41:56;;;;;;;16.90;15.70;;;21.40;99.90;;;;;;2615173;54;20368;-69
2023/06/24 20:47:44;;;;;;;17.87;16.70;;;21.20;99.90;;;;;;2614218;54;20411;-70
2023/06/24 20:53:32;;;;;;;20.90;19.50;;;21.10;99.90;;;;;;2615058;54;20143;-69
2023/06/24 20:59:19;;;;;;;24.63;22.93;;;20.90;99.90;;;;;;2615386;54;20127;-69
2023/06/24 21:05:07;;;;;;;26.80;24.57;;;20.80;99.90;;;;;;2615209;54;20132;-68
2023/06/24 21:14:36;;;;;;;32.27;29.60;;;20.50;99.90;;;;;;2615067;54;20948;-69
2023/06/24 21:20:24;;;;;;;33.03;30.10;;;20.40;99.90;;;;;;2615425;54;20408;-70
2023/06/24 21:26:12;;;;;;;27.40;25.20;;;20.20;99.90;;;;;;2613639;54;22042;-70
2023/06/24 21:32:00;;;;;;;24.93;23.03;;;20.20;99.90;;;;;;2612410;54;20171;-70
2023/06/24 21:37:48;;;;;;;21.63;20.03;;;20.10;99.90;;;;;;2614559;39;20268;-70
2023/06/24 21:43:36;;;;;;;18.60;17.20;;;20.00;99.90;;;;;;2613692;54;20230;-69
2023/06/24 21:49:24;;;;;;;18.80;17.40;;;19.90;99.90;;;;;;2610875;54;20933;-70
2023/06/24 21:55:11;;;;;;;13.97;13.07;;;19.90;99.90;;;;;;2614658;54;20138;-69
2023/06/24 22:00:59;;;;;;;15.30;14.27;;;19.80;99.90;;;;;;2611666;39;20548;-69
2023/06/24 22:06:47;;;;;;;14.67;13.67;;;19.60;99.90;;;;;;2613412;39;20201;-70
2023/06/24 22:12:34;;;;;;;14.43;13.53;;;19.40;99.90;;;;;;2614015;54;20665;-69
2023/06/24 22:18:22;;;;;;;14.87;13.57;;;19.40;99.90;;;;;;2614308;54;20125;-70
2023/06/24 22:24:10;;;;;;;14.77;13.87;;;19.40;99.90;;;;;;2614847;54;20122;-69
2023/06/24 22:29:58;;;;;;;14.37;13.47;;;19.10;99.90;;;;;;2615113;54;20131;-69
2023/06/24 22:35:46;;;;;;;15.13;14.13;;;18.90;99.90;;;;;;2613816;54;20171;-69
2023/06/24 22:41:33;;;;;;;13.90;13.00;;;18.70;99.90;;;;;;2614112;54;20150;-69
2023/06/24 22:47:21;;;;;;;13.70;12.80;;;18.70;99.90;;;;;;2613072;54;20147;-70
2023/06/24 22:53:09;;;;;;;13.57;12.60;;;18.50;99.90;;;;;;2614334;54;20244;-69
2023/06/24 22:58:56;;;;;;;15.00;13.70;;;18.50;99.90;;;;;;2613491;54;20159;-69
2023/06/24 23:04:44;;;;;;;14.27;13.03;;;18.40;99.90;;;;;;2614682;39;20629;-69
2023/06/24 23:13:58;;;;;;;13.73;12.73;;;18.20;99.90;;;;;;2611364;54;20527;-69
2023/06/24 23:19:47;;;;;;;13.20;12.13;;;18.10;99.90;;;;;;2613817;54;20366;-69
2023/06/24 23:25:39;;;;;;;14.00;13.10;;;18.10;99.90;;;;;;2614488;54;20363;-69
2023/06/24 23:31:27;;;;;;;13.80;12.73;;;18.30;99.90;;;;;;2611080;54;20535;-69
2023/06/24 23:37:15;;;;;;;15.93;14.93;;;18.10;99.90;;;;;;2614182;54;20407;-69
2023/06/24 23:43:03;;;;;;;13.60;12.70;;;17.90;99.90;;;;;;2613449;54;20391;-69
2023/06/24 23:48:51;;;;;;;15.47;14.10;;;17.80;99.90;;;;;;2612601;54;20412;-69
2023/06/24 23:54:39;;;;;;;14.23;13.13;;;17.70;99.90;;;;;;2613653;54;20142;-68
